createdAt,value
2019-04-30T00:00:39.897Z,6.77
2019-04-30T00:03:11.603Z,7.00
2019-04-30T00:05:41.945Z,7.40
2019-04-30T00:08:11.183Z,7.30
2019-04-30T00:10:41.382Z,7.00
2019-04-30T00:13:14.536Z,7.23
2019-04-30T00:15:40.613Z,6.60
2019-04-30T00:18:09.293Z,7.67
2019-04-30T00:20:38.771Z,7.30
2019-04-30T00:23:07.573Z,7.33
2019-04-30T00:25:38.180Z,7.10
2019-04-30T00:28:08.715Z,6.93
2019-04-30T00:30:39.295Z,7.07
2019-04-30T00:33:09.317Z,7.13
2019-04-30T00:35:37.957Z,6.90
2019-04-30T00:38:06.915Z,6.73
2019-04-30T00:40:35.451Z,7.03
2019-04-30T00:43:08.062Z,6.80
2019-04-30T00:45:35.330Z,6.90
2019-04-30T00:48:05.864Z,7.40
2019-04-30T00:50:37.178Z,7.50
2019-04-30T00:53:12.226Z,7.13
2019-04-30T00:55:40.261Z,8.37
2019-04-30T00:58:07.644Z,8.03
2019-04-30T01:00:37.807Z,8.07
2019-04-30T01:03:17.126Z,7.83
2019-04-30T01:05:49.072Z,7.60
2019-04-30T01:08:21.049Z,7.13
2019-04-30T01:10:48.755Z,7.70
2019-04-30T01:13:19.066Z,7.20
2019-04-30T01:15:49.037Z,7.23
2019-04-30T01:18:19.280Z,7.10
2019-04-30T01:20:48.723Z,7.37
2019-04-30T01:23:19.400Z,7.90
2019-04-30T01:25:51.315Z,7.87
2019-04-30T01:28:22.904Z,6.77
2019-04-30T01:30:53.874Z,7.97
2019-04-30T01:33:20.235Z,7.33
2019-04-30T01:35:48.869Z,7.63
2019-04-30T01:38:18.921Z,7.60
2019-04-30T01:40:51.069Z,7.93
2019-04-30T01:43:23.189Z,7.23
2019-04-30T01:45:50.966Z,8.13
2019-04-30T01:48:20.713Z,7.53
2019-04-30T01:50:49.384Z,8.07
2019-04-30T01:53:19.546Z,7.80
2019-04-30T01:55:55.576Z,8.80
2019-04-30T01:58:29.970Z,9.20
2019-04-30T02:00:59.372Z,9.47
2019-04-30T02:03:29.854Z,8.37
2019-04-30T02:05:59.664Z,9.27
2019-04-30T02:08:29.532Z,9.53
2019-04-30T02:11:02.435Z,9.70
2019-04-30T02:13:34.284Z,9.83
2019-04-30T02:16:01.784Z,10.20
2019-04-30T02:18:30.552Z,9.97
2019-04-30T02:20:59.628Z,10.17
2019-04-30T02:23:29.681Z,10.83
2019-04-30T02:26:00.621Z,10.43
2019-04-30T02:28:29.476Z,10.67
2019-04-30T02:31:00.285Z,9.97
2019-04-30T02:33:30.758Z,10.77
2019-04-30T02:36:03.694Z,10.30
2019-04-30T02:38:33.464Z,10.07
2019-04-30T02:41:03.302Z,10.60
2019-04-30T02:43:36.683Z,10.10
2019-04-30T02:46:06.560Z,10.87
2019-04-30T02:48:39.611Z,10.77
2019-04-30T02:51:12.332Z,10.70
2019-04-30T02:53:52.935Z,10.63
2019-04-30T02:56:26.567Z,10.83
2019-04-30T02:58:53.701Z,11.37
2019-04-30T03:01:22.402Z,12.77
2019-04-30T03:03:50.956Z,11.47
2019-04-30T03:06:23.182Z,11.67
2019-04-30T03:08:51.126Z,12.57
2019-04-30T03:11:20.851Z,12.43
2019-04-30T03:13:49.820Z,11.40
2019-04-30T03:16:20.691Z,11.63
2019-04-30T03:18:54.246Z,13.53
2019-04-30T03:21:40.619Z,12.97
2019-04-30T03:24:12.516Z,12.63
2019-04-30T03:26:41.089Z,13.33
2019-04-30T03:29:11.357Z,13.87
2019-04-30T03:31:44.386Z,14.93
2019-04-30T03:34:17.528Z,14.20
2019-04-30T03:36:42.238Z,15.37
2019-04-30T03:39:11.393Z,14.80
2019-04-30T03:41:41.729Z,15.47
2019-04-30T03:44:20.936Z,15.30
2019-04-30T03:46:40.651Z,16.00
2019-04-30T03:49:10.627Z,15.50
2019-04-30T03:51:40.290Z,15.40
2019-04-30T03:54:10.673Z,16.53
2019-04-30T03:56:40.608Z,16.33
2019-04-30T03:59:10.449Z,16.30
2019-04-30T04:01:59.560Z,16.37
2019-04-30T04:04:30.926Z,17.83
2019-04-30T04:07:04.146Z,16.03
2019-04-30T04:09:39.977Z,16.70
2019-04-30T04:12:30.156Z,17.63
2019-04-30T04:15:00.711Z,17.63
2019-04-30T04:17:31.064Z,17.87
2019-04-30T04:19:59.802Z,17.53
2019-04-30T04:22:30.669Z,17.93
2019-04-30T04:25:00.050Z,19.50
2019-04-30T04:27:30.291Z,20.77
2019-04-30T04:30:01.293Z,19.90
2019-04-30T04:32:31.393Z,20.27
2019-04-30T04:35:01.641Z,21.87
2019-04-30T04:37:30.596Z,20.80
2019-04-30T04:40:00.836Z,20.83
2019-04-30T04:42:32.714Z,20.20
2019-04-30T04:44:59.814Z,20.83
2019-04-30T04:47:30.712Z,22.40
2019-04-30T04:50:00.623Z,21.07
2019-04-30T04:52:31.487Z,22.17
2019-04-30T04:55:00.394Z,20.10
2019-04-30T04:57:30.476Z,22.03
2019-04-30T05:00:06.386Z,21.33
2019-04-30T05:02:46.411Z,22.43
2019-04-30T05:05:15.625Z,20.90
2019-04-30T05:07:44.156Z,20.90
2019-04-30T05:10:15.778Z,22.33
2019-04-30T05:12:50.637Z,22.03
2019-04-30T05:15:19.312Z,22.30
2019-04-30T05:17:49.274Z,20.87
2019-04-30T05:20:19.454Z,21.43
2019-04-30T05:22:48.901Z,21.27
2019-04-30T05:25:18.639Z,21.30
2019-04-30T05:27:48.973Z,21.97
2019-04-30T05:30:19.900Z,21.03
2019-04-30T05:32:53.807Z,20.63
2019-04-30T05:35:22.277Z,20.60
2019-04-30T05:37:52.359Z,20.43
2019-04-30T05:40:22.589Z,20.23
2019-04-30T05:42:51.234Z,19.03
2019-04-30T05:45:22.529Z,20.20
2019-04-30T05:47:51.212Z,21.53
2019-04-30T05:50:24.266Z,19.10
2019-04-30T05:52:54.399Z,20.53
2019-04-30T05:55:23.827Z,20.47
2019-04-30T05:57:56.568Z,20.67
2019-04-30T06:00:24.309Z,20.00
2019-04-30T06:02:56.053Z,18.40
2019-04-30T06:05:25.711Z,20.07
2019-04-30T06:07:55.480Z,19.90
2019-04-30T06:10:34.604Z,20.70
2019-04-30T06:13:19.633Z,19.53
2019-04-30T06:15:53.831Z,18.93
2019-04-30T06:18:23.441Z,18.07
2019-04-30T06:20:52.208Z,17.60
2019-04-30T06:23:22.503Z,18.33
2019-04-30T06:26:00.451Z,16.33
2019-04-30T06:28:25.690Z,16.37
2019-04-30T06:30:54.672Z,17.83
2019-04-30T06:33:23.315Z,17.30
2019-04-30T06:35:52.733Z,17.70
2019-04-30T06:38:21.337Z,17.63
2019-04-30T06:40:49.886Z,17.63
2019-04-30T06:43:19.698Z,17.03
2019-04-30T06:45:50.914Z,17.10
2019-04-30T06:48:19.923Z,18.00
2019-04-30T06:50:49.274Z,17.93
2019-04-30T06:53:19.284Z,17.10
2019-04-30T06:55:49.236Z,18.53
2019-04-30T06:58:20.244Z,18.10
2019-04-30T07:00:49.670Z,18.37
2019-04-30T07:03:19.177Z,17.13
2019-04-30T07:05:48.843Z,18.30
2019-04-30T07:08:42.492Z,16.13
2019-04-30T07:11:21.448Z,17.77
2019-04-30T07:13:52.309Z,17.63
2019-04-30T07:16:21.081Z,18.50
2019-04-30T07:18:49.646Z,19.47
2019-04-30T07:21:19.892Z,17.03
2019-04-30T07:23:48.608Z,17.13
2019-04-30T07:26:19.815Z,17.13
2019-04-30T07:28:52.745Z,34.00
2019-04-30T07:31:19.503Z,22.50
2019-04-30T07:33:51.507Z,21.43
2019-04-30T07:36:19.526Z,15.53
2019-04-30T07:38:54.554Z,15.57
2019-04-30T07:41:19.013Z,16.50
2019-04-30T07:43:49.351Z,16.47
2019-04-30T07:46:19.950Z,16.20
2019-04-30T07:48:50.224Z,15.77
2019-04-30T07:51:21.771Z,16.23
2019-04-30T07:53:53.268Z,17.43
2019-04-30T07:56:34.935Z,16.30
2019-04-30T07:59:00.677Z,16.67
2019-04-30T08:01:29.491Z,17.00
2019-04-30T08:04:14.630Z,18.03
2019-04-30T08:06:43.154Z,20.70
2019-04-30T08:09:11.738Z,22.80
2019-04-30T08:11:43.500Z,20.83
2019-04-30T08:14:10.508Z,18.37
2019-04-30T08:16:39.108Z,17.97
2019-04-30T08:19:09.109Z,18.10
2019-04-30T08:21:38.855Z,22.07
2019-04-30T08:24:08.931Z,19.20
2019-04-30T08:26:39.642Z,20.27
2019-04-30T08:29:09.690Z,20.30
2019-04-30T08:31:40.635Z,18.93
2019-04-30T08:34:10.621Z,18.70
2019-04-30T08:36:38.827Z,19.33
2019-04-30T08:39:09.575Z,19.07
2019-04-30T08:41:39.444Z,19.50
2019-04-30T08:44:09.432Z,19.53
2019-04-30T08:46:38.741Z,21.20
2019-04-30T08:49:09.253Z,19.47
2019-04-30T08:51:38.882Z,19.40
2019-04-30T08:54:09.535Z,19.47
2019-04-30T08:56:38.790Z,18.83
2019-04-30T08:59:08.723Z,18.97
2019-04-30T09:01:38.727Z,19.67
2019-04-30T09:04:07.701Z,20.53
2019-04-30T09:06:38.494Z,20.13
2019-04-30T09:09:11.315Z,20.80
2019-04-30T09:11:52.008Z,18.57
2019-04-30T09:14:10.406Z,19.90
2019-04-30T09:16:39.350Z,20.33
2019-04-30T09:19:09.656Z,22.00
2019-04-30T09:21:40.174Z,21.27
2019-04-30T09:24:09.557Z,20.67
2019-04-30T09:26:39.149Z,21.30
2019-04-30T09:29:09.345Z,20.60
2019-04-30T09:31:40.818Z,21.43
2019-04-30T09:34:15.221Z,20.73
2019-04-30T09:36:39.145Z,22.90
2019-04-30T09:39:08.959Z,21.47
2019-04-30T09:41:40.960Z,21.47
2019-04-30T09:44:09.891Z,20.07
2019-04-30T09:46:38.897Z,23.03
2019-04-30T09:49:09.537Z,21.50
2019-04-30T09:51:39.374Z,21.40
2019-04-30T09:54:11.907Z,21.30
2019-04-30T09:56:39.316Z,21.37
2019-04-30T09:59:09.110Z,23.17
2019-04-30T10:01:37.708Z,23.00
2019-04-30T10:04:06.816Z,22.67
2019-04-30T10:06:39.549Z,22.13
2019-04-30T10:09:09.659Z,23.40
2019-04-30T10:11:59.444Z,22.40
2019-04-30T10:14:29.687Z,24.00
2019-04-30T10:17:05.683Z,24.00
2019-04-30T10:19:39.240Z,23.03
2019-04-30T10:22:08.953Z,23.80
2019-04-30T10:24:39.214Z,23.33
2019-04-30T10:27:12.948Z,22.47
2019-04-30T10:29:39.532Z,23.67
2019-04-30T10:32:08.791Z,22.77
2019-04-30T10:34:37.442Z,22.33
2019-04-30T10:37:06.007Z,23.67
2019-04-30T10:39:34.575Z,24.90
2019-04-30T10:42:03.711Z,22.13
2019-04-30T10:44:32.216Z,23.50
2019-04-30T10:47:00.880Z,23.07
2019-04-30T10:49:29.397Z,24.70
2019-04-30T10:51:59.404Z,23.53
2019-04-30T10:54:29.044Z,23.37
2019-04-30T10:57:08.664Z,23.10
2019-04-30T10:59:36.272Z,24.73
2019-04-30T11:02:05.178Z,25.50
2019-04-30T11:04:33.774Z,24.20
2019-04-30T11:07:02.551Z,24.53
2019-04-30T11:09:32.671Z,25.00
2019-04-30T11:12:03.227Z,24.80
2019-04-30T11:14:31.955Z,23.50
2019-04-30T11:17:00.715Z,23.47
2019-04-30T11:19:31.290Z,24.67
2019-04-30T11:22:00.772Z,23.47
2019-04-30T11:24:36.642Z,23.97
2019-04-30T11:27:00.935Z,23.07
2019-04-30T11:29:30.872Z,23.70
2019-04-30T11:32:01.759Z,24.13
2019-04-30T11:34:30.342Z,23.13
2019-04-30T11:36:59.819Z,24.27
2019-04-30T11:39:29.794Z,23.70
2019-04-30T11:41:58.401Z,24.50
2019-04-30T11:44:31.281Z,22.70
2019-04-30T11:47:00.773Z,23.07
2019-04-30T11:49:29.293Z,24.10
2019-04-30T11:51:57.949Z,24.93
2019-04-30T11:54:26.516Z,23.90
2019-04-30T11:56:55.070Z,24.50
2019-04-30T11:59:24.171Z,22.47
2019-04-30T12:01:54.448Z,21.27
2019-04-30T12:04:23.101Z,23.80
2019-04-30T12:06:53.018Z,22.63
2019-04-30T12:09:41.447Z,23.80
2019-04-30T12:12:10.057Z,24.33
2019-04-30T12:14:39.568Z,22.03
2019-04-30T12:17:09.679Z,21.93
2019-04-30T12:19:40.804Z,22.50
2019-04-30T12:22:09.044Z,22.23
2019-04-30T12:24:38.813Z,21.50
2019-04-30T12:27:07.937Z,21.17
2019-04-30T12:29:39.756Z,21.13
2019-04-30T12:32:08.531Z,22.43
2019-04-30T12:34:41.496Z,23.07
2019-04-30T12:37:10.784Z,22.93
2019-04-30T12:39:39.533Z,22.47
2019-04-30T12:42:08.764Z,20.47
2019-04-30T12:44:39.849Z,22.73
2019-04-30T12:47:09.656Z,20.90
2019-04-30T12:50:00.943Z,22.43
2019-04-30T12:52:39.891Z,21.30
2019-04-30T12:55:15.635Z,21.83
2019-04-30T12:57:58.132Z,21.07
2019-04-30T13:00:19.495Z,21.93
2019-04-30T13:02:49.905Z,22.23
2019-04-30T13:05:18.886Z,22.03
2019-04-30T13:07:49.657Z,20.40
2019-04-30T13:10:18.532Z,19.80
2019-04-30T13:12:47.824Z,20.93
2019-04-30T13:15:17.158Z,21.90
2019-04-30T13:17:45.747Z,18.97
2019-04-30T13:20:20.979Z,19.80
2019-04-30T13:22:44.900Z,21.00
2019-04-30T13:25:13.649Z,20.03
2019-04-30T13:27:46.898Z,19.17
2019-04-30T13:30:22.939Z,18.23
2019-04-30T13:33:02.226Z,19.20
2019-04-30T13:35:30.748Z,17.40
2019-04-30T13:38:00.949Z,19.97
2019-04-30T13:40:31.229Z,20.23
2019-04-30T13:43:01.534Z,21.20
2019-04-30T13:45:30.177Z,21.00
2019-04-30T13:47:58.953Z,19.20
2019-04-30T13:50:29.127Z,18.97
2019-04-30T13:52:58.783Z,19.60
2019-04-30T13:55:29.310Z,20.47
2019-04-30T13:57:57.842Z,19.73
2019-04-30T14:00:29.713Z,18.90
2019-04-30T14:03:00.844Z,19.73
2019-04-30T14:05:29.601Z,19.53
2019-04-30T14:08:11.696Z,18.40
2019-04-30T14:10:41.305Z,18.10
2019-04-30T14:13:10.616Z,19.50
2019-04-30T14:15:40.613Z,18.83
2019-04-30T14:18:09.422Z,19.23
2019-04-30T14:20:38.201Z,18.33
2019-04-30T14:23:08.562Z,18.73
2019-04-30T14:25:38.083Z,18.80
2019-04-30T14:28:06.721Z,17.97
2019-04-30T14:30:35.265Z,18.70
2019-04-30T14:33:03.847Z,17.60
2019-04-30T14:35:32.808Z,17.13
2019-04-30T14:38:01.922Z,18.40
2019-04-30T14:40:30.957Z,17.93
2019-04-30T14:43:02.087Z,18.83
2019-04-30T14:45:32.849Z,18.27
2019-04-30T14:48:10.983Z,17.67
2019-04-30T14:50:39.617Z,18.07
2019-04-30T14:53:12.477Z,18.13
2019-04-30T14:55:44.360Z,18.90
2019-04-30T14:58:20.276Z,18.87
2019-04-30T15:00:49.759Z,18.40
2019-04-30T15:03:21.425Z,18.77
2019-04-30T15:05:51.707Z,19.00
2019-04-30T15:08:21.986Z,17.53
2019-04-30T15:10:50.542Z,18.80
2019-04-30T15:13:19.584Z,19.20
2019-04-30T15:15:49.166Z,17.07
2019-04-30T15:18:19.201Z,19.20
2019-04-30T15:20:49.771Z,19.33
2019-04-30T15:23:22.745Z,19.27
2019-04-30T15:25:51.256Z,19.30
2019-04-30T15:28:19.771Z,19.17
2019-04-30T15:30:48.822Z,19.40
2019-04-30T15:33:25.196Z,18.97
2019-04-30T15:35:53.748Z,19.47
2019-04-30T15:38:23.898Z,19.77
2019-04-30T15:40:52.425Z,19.60
2019-04-30T15:43:21.016Z,19.60
2019-04-30T15:45:49.610Z,19.37
2019-04-30T15:48:19.634Z,20.53
2019-04-30T15:50:51.107Z,19.33
2019-04-30T15:53:22.436Z,18.40
2019-04-30T15:55:50.929Z,17.90
2019-04-30T15:58:30.560Z,19.40
2019-04-30T16:00:59.985Z,19.10
2019-04-30T16:03:30.768Z,18.50
2019-04-30T16:05:59.331Z,18.73
2019-04-30T16:08:29.706Z,20.37
2019-04-30T16:11:19.345Z,19.00
2019-04-30T16:13:58.640Z,20.33
2019-04-30T16:16:29.027Z,19.30
2019-04-30T16:18:58.808Z,19.60
2019-04-30T16:21:29.195Z,19.07
2019-04-30T16:23:58.475Z,18.53
2019-04-30T16:26:28.991Z,19.77
2019-04-30T16:28:58.597Z,18.13
2019-04-30T16:31:29.094Z,19.23
2019-04-30T16:33:57.783Z,17.97
2019-04-30T16:36:26.324Z,17.20
2019-04-30T16:38:54.809Z,18.07
2019-04-30T16:41:31.510Z,17.57
2019-04-30T16:43:53.629Z,18.50
2019-04-30T16:46:22.192Z,18.37
2019-04-30T16:48:50.820Z,18.27
2019-04-30T16:51:19.456Z,18.70
2019-04-30T16:53:48.697Z,19.10
2019-04-30T16:56:18.589Z,17.97
2019-04-30T16:59:01.529Z,17.77
2019-04-30T17:01:32.304Z,17.77
2019-04-30T17:04:02.768Z,17.17
2019-04-30T17:06:50.670Z,16.70
2019-04-30T17:09:23.669Z,18.00
2019-04-30T17:11:59.849Z,18.60
2019-04-30T17:14:30.722Z,15.13
2019-04-30T17:16:59.804Z,17.30
2019-04-30T17:19:29.174Z,17.83
2019-04-30T17:21:57.941Z,17.97
2019-04-30T17:24:26.545Z,17.23
2019-04-30T17:26:55.117Z,16.37
2019-04-30T17:29:23.641Z,17.27
2019-04-30T17:31:52.200Z,17.57
2019-04-30T17:34:20.702Z,17.57
2019-04-30T17:36:49.685Z,17.70
2019-04-30T17:39:20.078Z,16.37
2019-04-30T17:41:49.332Z,17.70
2019-04-30T17:44:19.441Z,16.77
2019-04-30T17:46:49.779Z,16.37
2019-04-30T17:49:18.969Z,16.33
2019-04-30T17:51:49.073Z,17.60
2019-04-30T17:54:17.816Z,15.80
2019-04-30T17:56:46.732Z,17.40
2019-04-30T17:59:15.355Z,16.20
2019-04-30T18:01:45.686Z,16.63
2019-04-30T18:04:14.251Z,16.27
2019-04-30T18:06:42.852Z,16.80
2019-04-30T18:09:22.154Z,15.70
2019-04-30T18:11:50.697Z,15.83
2019-04-30T18:14:19.226Z,15.63
2019-04-30T18:16:48.674Z,14.87
2019-04-30T18:19:19.149Z,14.17
2019-04-30T18:21:49.282Z,15.50
2019-04-30T18:24:22.016Z,13.53
2019-04-30T18:26:55.170Z,14.33
2019-04-30T18:29:23.700Z,12.67
2019-04-30T18:31:52.295Z,13.77
2019-04-30T18:34:20.863Z,13.03
2019-04-30T18:36:51.244Z,12.83
2019-04-30T18:39:19.531Z,14.10
2019-04-30T18:41:48.039Z,14.07
2019-04-30T18:44:16.493Z,13.17
2019-04-30T18:46:45.003Z,11.90
2019-04-30T18:49:13.528Z,13.13
2019-04-30T18:51:43.654Z,13.60
2019-04-30T18:54:12.280Z,12.90
2019-04-30T18:56:40.783Z,11.90
2019-04-30T18:59:09.270Z,12.40
2019-04-30T19:01:37.831Z,12.17
2019-04-30T19:04:06.428Z,12.43
2019-04-30T19:06:35.012Z,12.30
2019-04-30T19:09:21.746Z,11.90
2019-04-30T19:12:00.788Z,12.50
2019-04-30T19:14:33.783Z,12.90
2019-04-30T19:17:14.451Z,12.93
2019-04-30T19:19:50.169Z,13.00
2019-04-30T19:22:20.141Z,12.33
2019-04-30T19:24:57.368Z,13.70
2019-04-30T19:27:18.974Z,12.40
2019-04-30T19:29:51.706Z,13.50
2019-04-30T19:32:19.760Z,13.23
2019-04-30T19:34:48.958Z,11.90
2019-04-30T19:37:19.580Z,13.90
2019-04-30T19:39:48.725Z,12.57
2019-04-30T19:42:18.738Z,12.03
2019-04-30T19:44:58.906Z,12.60
2019-04-30T19:47:19.099Z,12.97
2019-04-30T19:49:48.863Z,13.73
2019-04-30T19:52:19.214Z,12.60
2019-04-30T19:54:48.768Z,12.30
2019-04-30T19:57:19.111Z,13.30
2019-04-30T19:59:49.206Z,13.53
2019-04-30T20:02:19.094Z,13.10
2019-04-30T20:04:48.519Z,13.13
2019-04-30T20:07:17.158Z,13.60
2019-04-30T20:09:57.244Z,13.00
2019-04-30T20:12:15.974Z,13.23
2019-04-30T20:14:44.489Z,12.93
2019-04-30T20:17:13.955Z,13.20
2019-04-30T20:19:42.460Z,13.03
2019-04-30T20:22:11.167Z,13.30
2019-04-30T20:24:40.415Z,13.70
2019-04-30T20:27:10.182Z,13.60
2019-04-30T20:29:40.799Z,13.17
2019-04-30T20:32:09.214Z,14.50
2019-04-30T20:34:39.196Z,13.87
2019-04-30T20:37:08.647Z,13.60
2019-04-30T20:39:41.956Z,13.20
2019-04-30T20:42:10.478Z,13.80
2019-04-30T20:44:39.042Z,14.90
2019-04-30T20:47:08.942Z,14.03
2019-04-30T20:49:39.075Z,14.33
2019-04-30T20:52:07.871Z,14.23
2019-04-30T20:54:36.498Z,13.93
2019-04-30T20:57:05.117Z,14.17
2019-04-30T20:59:33.617Z,14.03
2019-04-30T21:02:02.274Z,14.60
2019-04-30T21:04:31.497Z,14.37
2019-04-30T21:07:00.062Z,15.20
2019-04-30T21:09:30.259Z,15.10
2019-04-30T21:11:58.861Z,14.80
2019-04-30T21:14:27.392Z,15.40
2019-04-30T21:16:55.943Z,14.83
2019-04-30T21:19:24.453Z,15.10
2019-04-30T21:21:53.009Z,15.70
2019-04-30T21:24:21.666Z,15.47
2019-04-30T21:26:53.004Z,15.07
2019-04-30T21:29:22.200Z,15.43
2019-04-30T21:31:52.421Z,17.13
2019-04-30T21:34:25.310Z,15.50
2019-04-30T21:36:55.545Z,16.10
2019-04-30T21:39:24.092Z,15.90
2019-04-30T21:41:52.593Z,15.90
2019-04-30T21:44:21.183Z,16.33
2019-04-30T21:46:49.699Z,15.97
2019-04-30T21:49:18.232Z,16.53
2019-04-30T21:51:46.743Z,16.13
2019-04-30T21:54:15.436Z,15.73
2019-04-30T21:56:44.002Z,17.40
2019-04-30T21:59:23.833Z,16.37
2019-04-30T22:01:42.957Z,16.83
2019-04-30T22:04:11.599Z,16.93
2019-04-30T22:06:40.092Z,15.93
2019-04-30T22:09:10.454Z,16.97
2019-04-30T22:11:39.455Z,16.50
2019-04-30T22:14:08.196Z,16.47
2019-04-30T22:16:36.777Z,17.20
2019-04-30T22:19:05.355Z,16.30
2019-04-30T22:21:33.862Z,16.30
2019-04-30T22:24:02.427Z,16.53
2019-04-30T22:26:30.973Z,16.07
2019-04-30T22:28:59.476Z,15.43
2019-04-30T22:31:29.602Z,16.27
2019-04-30T22:33:58.972Z,16.43
2019-04-30T22:36:38.815Z,16.50
2019-04-30T22:39:12.026Z,16.80
2019-04-30T22:41:40.352Z,17.13
2019-04-30T22:44:08.932Z,17.67
2019-04-30T22:46:39.229Z,17.23
2019-04-30T22:49:07.692Z,17.60
2019-04-30T22:51:36.244Z,17.57
2019-04-30T22:54:04.961Z,17.57
2019-04-30T22:56:33.631Z,16.70
2019-04-30T22:59:02.085Z,16.50
2019-04-30T23:01:39.846Z,17.53
2019-04-30T23:04:10.262Z,17.47
2019-04-30T23:06:38.833Z,17.23
2019-04-30T23:09:10.749Z,17.67
2019-04-30T23:11:39.664Z,18.00
2019-04-30T23:14:09.198Z,17.77
2019-04-30T23:16:37.709Z,18.00
2019-04-30T23:19:06.205Z,18.27
2019-04-30T23:21:34.692Z,17.60
2019-04-30T23:24:03.259Z,18.30
2019-04-30T23:26:31.804Z,19.00
2019-04-30T23:29:02.235Z,19.43
2019-04-30T23:31:30.685Z,17.33
2019-04-30T23:33:59.253Z,18.10
2019-04-30T23:36:27.834Z,17.27
2019-04-30T23:38:56.384Z,18.73
2019-04-30T23:41:24.975Z,18.73
2019-04-30T23:43:55.017Z,20.00
2019-04-30T23:46:23.749Z,19.90
2019-04-30T23:48:52.302Z,18.83
2019-04-30T23:51:20.850Z,20.23
2019-04-30T23:53:49.368Z,18.67
2019-04-30T23:56:17.914Z,19.87
2019-04-30T23:58:46.402Z,19.93
